»·PEaware :: UAL9 LEBB-KJFK

UAL9 :: LEBB-KJFK

FLIGHT INFORMATION

Flight Status: Arrived
Operator:
United Airlines
More flights by this operator :: More flights under this callsign
Pilot: Scott L. (17677)
Aircraft: BOEING 767-300
(B763)
More flights by this aircraft type
Origin: LEBB Bilbao
Spain
Destination: KJFK Kennedy Intl
United States
More flights between these airports :: More routes between these airports
Route: CALCE R42 VES/N0478F340 PASAS/M081F340 46N020W 47N030W 47N040W 46N050W/N0468F340 RELIC/N0468F380 N144D BRADD PLYMM PARCH3
File this flight plan on PilotEdge
Remarks: RMK / SIMBRIEF
Altitude:
(Current/Filed)
13,000ft
Speed:
(Current/Filed)
380kts
Departed: 09-Feb-21 10:01 AM
Arrived: 09-Feb-21 04:52 PM
Distance/Time
Traveled:
3067nm/6:50
Distance/Time
To Go:
Arrived

Flight Plot

Page will automatically refresh every two minutes.

Flight plan parsing failed; only flown route is shown


Map Options




Map Legend


Flown Route
Filed Route
Departure Airport
Arrival Airport
Navaid (VOR, NDB)
Fix

Horizontal Profiles

Position Reports

Time Latitude Longitude Heading Altitude Ground
Speed
09-Feb-21 09:59 43.587920 -4.731297 281 30869ft 403kts
09-Feb-21 10:00 43.619749 -4.882330 281 31537ft 418kts
09-Feb-21 10:01 43.652453 -5.038500 283 32644ft 418kts
09-Feb-21 10:02 43.684752 -5.193909 283 33512ft 418kts
09-Feb-21 10:03 43.716708 -5.348921 283 33504ft 415kts
09-Feb-21 10:04 43.748409 -5.503912 283 33502ft 415kts
09-Feb-21 10:05 43.779781 -5.658535 284 33527ft 410kts
09-Feb-21 10:06 43.810732 -5.812110 284 33536ft 410kts
09-Feb-21 10:07 43.841349 -5.965270 284 33534ft 410kts
09-Feb-21 10:08 43.871869 -6.119145 284 33532ft 410kts
09-Feb-21 10:09 43.902114 -6.272831 284 33531ft 410kts
09-Feb-21 10:10 43.932205 -6.426937 284 33530ft 410kts
09-Feb-21 10:11 43.962130 -6.581419 284 33528ft 410kts
09-Feb-21 10:12 43.991760 -6.735583 283 33535ft 410kts
09-Feb-21 10:13 44.021160 -6.889774 283 33533ft 410kts
09-Feb-21 10:14 44.050407 -7.044487 283 33532ft 407kts
09-Feb-21 10:15 44.078915 -7.196478 284 33530ft 402kts
09-Feb-21 10:16 44.106973 -7.347187 284 33532ft 401kts
09-Feb-21 10:17 44.135040 -7.499211 284 33530ft 401kts
09-Feb-21 10:18 44.163052 -7.652205 284 33535ft 412kts
09-Feb-21 10:19 44.192076 -7.812078 284 33536ft 425kts
09-Feb-21 10:20 44.218035 -7.956255 284 33536ft 423kts
09-Feb-21 10:21 44.246807 -8.117380 284 33534ft 423kts
09-Feb-21 10:22 44.275369 -8.278782 284 33532ft 424kts
09-Feb-21 10:23 44.303484 -8.439044 284 33530ft 424kts
09-Feb-21 10:24 44.337468 -8.634717 284 33528ft 424kts
09-Feb-21 10:25 44.418302 -9.109260 284 33532ft 412kts
09-Feb-21 10:26 44.444925 -9.268227 284 33532ft 421kts
09-Feb-21 10:27 44.471670 -9.429504 284 33531ft 420kts
09-Feb-21 10:28 44.497599 -9.587386 284 33528ft 419kts
09-Feb-21 10:29 44.523894 -9.748990 283 33533ft 419kts
09-Feb-21 10:30 44.549768 -9.909550 283 33532ft 419kts
09-Feb-21 10:31 44.575465 -10.070567 283 33534ft 420kts
09-Feb-21 10:32 44.600569 -10.229393 284 33532ft 419kts
09-Feb-21 10:33 44.625856 -10.390922 283 33529ft 419kts
09-Feb-21 10:34 44.650868 -10.552285 283 33526ft 420kts
09-Feb-21 10:35 44.675672 -10.713924 283 33535ft 420kts
09-Feb-21 10:36 44.700224 -10.875599 283 33531ft 414kts
09-Feb-21 10:37 44.723827 -11.032628 284 33530ft 400kts
09-Feb-21 10:38 44.746728 -11.186287 285 33528ft 400kts
09-Feb-21 10:39 44.769592 -11.341286 284 33526ft 399kts
09-Feb-21 10:40 44.792115 -11.495615 285 33524ft 399kts
09-Feb-21 10:41 44.814429 -11.649948 284 33522ft 400kts
09-Feb-21 10:42 44.836574 -11.804711 284 33535ft 400kts
09-Feb-21 10:43 44.858542 -11.959883 284 33531ft 400kts
09-Feb-21 10:44 44.880296 -12.115073 284 33527ft 399kts
09-Feb-21 10:45 44.901858 -12.270537 284 33528ft 400kts
09-Feb-21 10:46 44.923200 -12.426101 284 33521ft 400kts
09-Feb-21 10:47 44.944296 -12.581480 284 33522ft 399kts
09-Feb-21 10:48 44.965250 -12.737441 283 33533ft 401kts
09-Feb-21 10:49 44.986079 -12.894195 283 33528ft 407kts
09-Feb-21 10:50 45.009009 -13.051897 287 33529ft 402kts
09-Feb-21 10:51 45.036081 -13.206017 288 33521ft 396kts
09-Feb-21 10:52 45.062909 -13.360304 288 33522ft 404kts
09-Feb-21 10:53 45.089945 -13.517408 288 33518ft 412kts
09-Feb-21 10:54 45.117299 -13.677823 287 33539ft 418kts
09-Feb-21 10:55 45.144711 -13.840140 287 33538ft 420kts
09-Feb-21 10:56 45.171875 -14.002450 287 33534ft 420kts
09-Feb-21 10:57 45.198882 -14.165348 287 33538ft 420kts
09-Feb-21 10:58 45.225580 -14.327945 286 33535ft 419kts
09-Feb-21 10:59 45.251916 -14.489870 287 33532ft 420kts
09-Feb-21 11:00 45.278150 -14.652725 286 33528ft 419kts
09-Feb-21 11:01 45.303987 -14.814738 286 33538ft 419kts
09-Feb-21 11:02 45.329636 -14.977386 287 33535ft 410kts
09-Feb-21 11:03 45.353809 -15.132003 289 33530ft 388kts
09-Feb-21 11:04 45.377444 -15.284208 289 33529ft 391kts
09-Feb-21 11:05 45.400759 -15.436080 289 33553ft 391kts
09-Feb-21 11:06 45.423947 -15.588585 289 33553ft 391kts
09-Feb-21 11:07 45.446880 -15.740867 288 33568ft 392kts
09-Feb-21 11:08 45.469729 -15.894076 288 33561ft 391kts
09-Feb-21 11:09 45.492146 -16.045812 288 33559ft 391kts
09-Feb-21 11:10 45.514599 -16.199375 288 33558ft 391kts
09-Feb-21 11:12 45.536804 -16.352820 288 33550ft 391kts
09-Feb-21 11:13 45.558826 -16.506393 288 33552ft 391kts
09-Feb-21 11:14 45.580575 -16.659692 287 33552ft 391kts
09-Feb-21 11:15 45.602135 -16.813219 287 33563ft 391kts
09-Feb-21 11:16 45.623145 -16.964283 286 33559ft 382kts
09-Feb-21 11:17 45.643561 -17.112686 285 33562ft 378kts
09-Feb-21 11:18 45.663762 -17.261058 285 33555ft 377kts
09-Feb-21 11:19 45.683729 -17.409180 285 33550ft 376kts
09-Feb-21 11:20 45.703546 -17.557720 285 33549ft 377kts
09-Feb-21 11:21 45.723199 -17.706576 285 33565ft 378kts
09-Feb-21 11:22 45.742619 -17.855215 285 33558ft 377kts
09-Feb-21 11:23 45.761940 -18.004746 285 33556ft 378kts
09-Feb-21 11:24 45.780719 -18.151527 285 33556ft 378kts
09-Feb-21 11:25 45.799485 -18.299905 284 34390ft 375kts
09-Feb-21 11:26 45.817896 -18.447101 285 35160ft 373kts
09-Feb-21 11:27 45.836050 -18.594149 285 35600ft 356kts
09-Feb-21 11:28 45.853417 -18.735542 284 35713ft 362kts
09-Feb-21 11:29 45.871081 -18.881376 284 35815ft 372kts
09-Feb-21 11:29 45.885766 -19.003922 283 35907ft 371kts
09-Feb-21 11:31 45.906165 -19.175971 281 35906ft 373kts
09-Feb-21 11:31 45.920608 -19.299462 281 35903ft 373kts
09-Feb-21 11:32 45.937669 -19.446781 281 35902ft 373kts
09-Feb-21 11:34 45.957491 -19.620009 281 35898ft 373kts
09-Feb-21 11:34 45.971452 -19.743525 281 35915ft 374kts
09-Feb-21 11:36 45.990835 -19.917101 281 35909ft 374kts
09-Feb-21 11:36 46.005763 -20.040032 283 35905ft 372kts
09-Feb-21 11:37 46.027125 -20.186879 283 35902ft 372kts
09-Feb-21 11:38 46.048267 -20.334069 283 35898ft 372kts
09-Feb-21 11:39 46.069247 -20.481531 283 35900ft 373kts
09-Feb-21 11:40 46.089995 -20.628824 283 35898ft 372kts
09-Feb-21 11:41 46.110564 -20.776407 282 35972ft 373kts
09-Feb-21 11:42 46.130943 -20.923940 282 36004ft 372kts
09-Feb-21 11:43 46.151115 -21.071387 280 35998ft 375kts
09-Feb-21 11:44 46.171380 -21.221331 279 35997ft 378kts
09-Feb-21 11:45 46.191340 -21.370545 280 35997ft 377kts
09-Feb-21 11:46 46.211237 -21.520715 280 35993ft 377kts
09-Feb-21 11:47 46.230898 -21.670740 279 36003ft 377kts
09-Feb-21 11:48 46.250299 -21.820325 279 36001ft 376kts
09-Feb-21 11:49 46.269454 -21.969734 279 36002ft 377kts
09-Feb-21 11:50 46.288508 -22.119868 279 36001ft 377kts
09-Feb-21 11:51 46.307294 -22.269640 279 35996ft 377kts
09-Feb-21 11:52 46.325996 -22.420307 279 35993ft 377kts
09-Feb-21 11:53 46.344442 -22.570666 279 35989ft 377kts
09-Feb-21 11:54 46.362585 -22.720256 278 36005ft 377kts
09-Feb-21 11:55 46.380604 -22.870383 278 36003ft 379kts
09-Feb-21 11:56 46.398609 -23.022291 277 36001ft 384kts
09-Feb-21 11:57 46.416520 -23.175353 276 35998ft 384kts
09-Feb-21 11:58 46.434316 -23.329182 276 35997ft 385kts
09-Feb-21 11:59 46.451950 -23.483442 277 35993ft 385kts
09-Feb-21 12:00 46.469285 -23.637123 277 35990ft 385kts
09-Feb-21 12:01 46.486479 -23.791352 276 36002ft 385kts
09-Feb-21 12:02 46.503422 -23.945335 276 35999ft 385kts
09-Feb-21 12:03 46.520172 -24.099544 276 36001ft 385kts
09-Feb-21 12:04 46.536716 -24.253832 276 35994ft 384kts
09-Feb-21 12:05 46.553080 -24.408504 276 35993ft 385kts
09-Feb-21 12:06 46.568809 -24.559101 276 35989ft 384kts
09-Feb-21 12:07 46.584758 -24.713976 275 36006ft 385kts
09-Feb-21 12:08 46.600415 -24.867978 275 36001ft 384kts
09-Feb-21 12:09 46.615890 -25.022280 275 35997ft 384kts
09-Feb-21 12:10 46.631212 -25.177233 273 35997ft 385kts
09-Feb-21 12:11 46.646362 -25.333013 273 35993ft 386kts
09-Feb-21 12:12 46.661266 -25.488282 273 35994ft 386kts
09-Feb-21 12:13 46.676002 -25.644081 272 35990ft 386kts
09-Feb-21 12:14 46.690530 -25.799934 272 36005ft 387kts
09-Feb-21 12:15 46.704797 -25.955417 272 36005ft 386kts
09-Feb-21 12:16 46.718916 -26.111648 272 36000ft 386kts
09-Feb-21 12:17 46.732718 -26.266776 272 35997ft 386kts
09-Feb-21 12:18 46.746384 -26.422876 272 35992ft 386kts
09-Feb-21 12:19 46.759836 -26.578931 272 35992ft 386kts
09-Feb-21 12:20 46.773107 -26.735615 272 36007ft 386kts
09-Feb-21 12:21 46.786085 -26.891227 271 36004ft 385kts
09-Feb-21 12:22 46.799005 -27.048858 270 35998ft 393kts
09-Feb-21 12:23 46.811913 -27.209102 270 35999ft 398kts
09-Feb-21 12:24 46.824626 -27.369883 270 35996ft 398kts
09-Feb-21 12:25 46.837135 -27.530969 270 35994ft 397kts
09-Feb-21 12:26 46.849422 -27.692241 269 36011ft 397kts
09-Feb-21 12:27 46.861465 -27.853321 269 36007ft 398kts
09-Feb-21 12:28 46.873157 -28.012659 269 36003ft 397kts
09-Feb-21 12:29 46.884782 -28.174136 269 36003ft 397kts
09-Feb-21 12:30 46.896157 -28.335668 269 36001ft 398kts
09-Feb-21 12:31 46.907363 -28.497997 269 35997ft 399kts
09-Feb-21 12:32 46.918292 -28.659617 268 36001ft 399kts
09-Feb-21 12:33 46.929028 -28.821887 268 36009ft 400kts
09-Feb-21 12:34 46.939512 -28.983813 267 36010ft 406kts
09-Feb-21 12:35 46.949752 -29.145504 266 35938ft 410kts
09-Feb-21 12:36 46.959996 -29.311242 266 35809ft 411kts
09-Feb-21 12:37 46.970073 -29.478248 267 35805ft 412kts
09-Feb-21 12:38 46.979972 -29.646086 266 35803ft 413kts
09-Feb-21 12:39 46.989600 -29.813910 266 35815ft 414kts
09-Feb-21 12:40 46.998739 -29.977203 266 35815ft 414kts
09-Feb-21 12:41 47.006314 -30.147344 265 35811ft 415kts
09-Feb-21 12:42 47.013266 -30.314061 265 35809ft 417kts
09-Feb-21 12:43 47.020041 -30.482771 265 35808ft 415kts
09-Feb-21 12:44 47.026408 -30.647527 265 35808ft 418kts
09-Feb-21 12:45 47.032676 -30.815715 265 35814ft 417kts
09-Feb-21 12:46 47.038738 -30.985036 264 35811ft 420kts
09-Feb-21 12:47 47.044526 -31.155524 265 35814ft 438kts
09-Feb-21 12:48 47.050433 -31.334878 266 35805ft 444kts
09-Feb-21 12:49 47.056028 -31.514158 266 35808ft 444kts
09-Feb-21 12:50 47.061273 -31.691331 265 35815ft 444kts
09-Feb-21 12:51 47.066296 -31.870191 265 35785ft 442kts
09-Feb-21 12:52 47.071055 -32.049890 265 35785ft 444kts
09-Feb-21 12:53 47.075503 -32.228582 265 35784ft 443kts
09-Feb-21 12:54 47.079666 -32.406654 265 35782ft 442kts
09-Feb-21 12:55 47.083565 -32.585822 265 35786ft 444kts
09-Feb-21 12:56 47.087226 -32.766243 264 35788ft 442kts
09-Feb-21 12:57 47.090582 -32.946034 265 35784ft 442kts
09-Feb-21 12:58 47.093661 -33.126346 265 35782ft 445kts
09-Feb-21 12:59 47.096460 -33.306714 265 35785ft 445kts
09-Feb-21 13:00 47.098909 -33.481916 265 35782ft 445kts
09-Feb-21 13:01 47.101156 -33.662653 264 35772ft 446kts
09-Feb-21 13:02 47.103131 -33.844915 264 35774ft 446kts
09-Feb-21 13:03 47.104804 -34.025155 264 35771ft 445kts
09-Feb-21 13:05 47.106205 -34.206940 264 35770ft 445kts
09-Feb-21 13:06 47.107314 -34.388514 264 35770ft 446kts
09-Feb-21 13:07 47.108135 -34.572742 265 35770ft 454kts
09-Feb-21 13:08 47.108684 -34.757680 264 35774ft 452kts
09-Feb-21 13:09 47.108905 -34.941875 265 35773ft 455kts
09-Feb-21 13:10 47.108860 -35.127864 266 35773ft 458kts
09-Feb-21 13:11 47.108510 -35.314585 266 35772ft 457kts
09-Feb-21 13:12 47.107849 -35.501163 266 35772ft 457kts
09-Feb-21 13:13 47.106887 -35.687167 265 35775ft 457kts
09-Feb-21 13:14 47.105606 -35.875188 265 35774ft 457kts
09-Feb-21 13:15 47.104035 -36.061675 265 35773ft 457kts
09-Feb-21 13:16 47.102152 -36.248960 265 35773ft 457kts
09-Feb-21 13:17 47.099973 -36.435536 265 35772ft 457kts
09-Feb-21 13:18 47.098251 -36.567387 265 35771ft 457kts
09-Feb-21 13:18 47.098048 -36.582193 265 35771ft 457kts
09-Feb-21 13:20 47.097767 -36.602453 265 35771ft 457kts
09-Feb-21 13:21 47.097520 -36.620063 265 35771ft 457kts
09-Feb-21 13:21 47.097279 -36.637049 265 35772ft 457kts
09-Feb-21 13:23 47.095495 -36.757615 264 35774ft 456kts
09-Feb-21 13:23 47.091791 -36.984856 264 35773ft 456kts
09-Feb-21 13:24 47.087810 -37.202491 265 35774ft 461kts
09-Feb-21 13:25 47.084047 -37.391433 265 35773ft 461kts
09-Feb-21 13:26 47.079993 -37.578805 265 35773ft 461kts
09-Feb-21 13:27 47.075614 -37.766783 265 35775ft 461kts
09-Feb-21 13:28 47.070925 -37.954947 265 35774ft 461kts
09-Feb-21 13:29 47.065944 -38.142500 265 35774ft 461kts
09-Feb-21 13:30 47.060643 -38.330511 265 35773ft 461kts
09-Feb-21 13:31 47.054998 -38.519677 265 35773ft 461kts
09-Feb-21 13:32 47.049035 -38.708918 264 35775ft 461kts
09-Feb-21 13:33 47.042800 -38.896928 264 35774ft 461kts
09-Feb-21 13:34 47.036201 -39.086063 265 35775ft 460kts
09-Feb-21 13:35 47.029320 -39.275305 265 35604ft 460kts
09-Feb-21 13:36 47.022139 -39.463807 265 35457ft 459kts
09-Feb-21 13:37 47.014677 -39.651518 265 35456ft 459kts
09-Feb-21 13:38 47.006876 -39.839814 265 35459ft 458kts
09-Feb-21 13:39 46.998401 -40.027010 264 35458ft 456kts
09-Feb-21 13:40 46.988283 -40.209240 264 35457ft 455kts
09-Feb-21 13:41 46.977649 -40.393705 264 35457ft 454kts
09-Feb-21 13:42 46.966912 -40.574729 264 35456ft 453kts
09-Feb-21 13:43 46.955805 -40.756596 263 35459ft 451kts
09-Feb-21 13:44 46.944277 -40.940466 264 35459ft 449kts
09-Feb-21 13:45 46.932513 -41.124252 264 35459ft 449kts
09-Feb-21 13:46 46.920484 -41.306915 265 35458ft 448kts
09-Feb-21 13:47 46.908164 -41.489285 264 35457ft 447kts
09-Feb-21 13:48 46.895583 -41.671066 264 35460ft 445kts
09-Feb-21 13:49 46.882844 -41.851952 264 35461ft 444kts
09-Feb-21 13:50 46.869747 -42.032711 264 35459ft 444kts
09-Feb-21 13:51 46.856436 -42.212977 263 35458ft 444kts
09-Feb-21 13:52 46.842613 -42.393648 264 35456ft 444kts
09-Feb-21 13:53 46.829061 -42.571467 264 35456ft 444kts
09-Feb-21 13:54 46.814991 -42.751650 263 35461ft 444kts
09-Feb-21 13:55 46.800548 -42.930914 263 35460ft 444kts
09-Feb-21 13:56 46.785835 -43.111333 264 35459ft 444kts
09-Feb-21 13:57 46.770801 -43.291444 264 35457ft 446kts
09-Feb-21 13:58 46.755567 -43.470483 265 35457ft 446kts
09-Feb-21 13:59 46.740129 -43.648839 264 35455ft 446kts
09-Feb-21 14:00 46.724170 -43.828949 264 35460ft 446kts
09-Feb-21 14:01 46.708176 -44.006789 264 35459ft 446kts
09-Feb-21 14:02 46.691959 -44.183383 264 35458ft 446kts
09-Feb-21 14:03 46.675391 -44.361826 264 35457ft 446kts
09-Feb-21 14:04 46.658486 -44.540612 264 35456ft 446kts
09-Feb-21 14:05 46.641198 -44.719977 263 35461ft 446kts
09-Feb-21 14:06 46.623668 -44.899169 263 35510ft 447kts
09-Feb-21 14:07 46.605721 -45.079150 264 35504ft 446kts
09-Feb-21 14:08 46.587587 -45.258138 264 35504ft 446kts
09-Feb-21 14:09 46.569082 -45.437990 264 35503ft 447kts
09-Feb-21 14:10 46.550325 -45.617399 264 35503ft 447kts
09-Feb-21 14:11 46.531326 -45.795662 263 35507ft 447kts
09-Feb-21 14:12 46.512001 -45.975312 263 35506ft 447kts
09-Feb-21 14:13 46.492396 -46.154513 263 35505ft 447kts
09-Feb-21 14:14 46.472527 -46.333593 263 35503ft 447kts
09-Feb-21 14:15 46.452329 -46.512784 263 35502ft 446kts
09-Feb-21 14:16 46.431850 -46.692123 263 35509ft 447kts
09-Feb-21 14:17 46.411066 -46.871229 263 35503ft 446kts
09-Feb-21 14:18 46.390176 -47.048670 264 35503ft 445kts
09-Feb-21 14:19 46.369031 -47.226265 264 35503ft 445kts
09-Feb-21 14:20 46.347611 -47.403407 264 35499ft 445kts
09-Feb-21 14:21 46.325911 -47.580434 264 35503ft 446kts
09-Feb-21 14:22 46.303773 -47.758382 264 35509ft 448kts
09-Feb-21 14:23 46.281598 -47.934527 264 35512ft 447kts
09-Feb-21 14:24 46.259255 -48.109892 264 35509ft 440kts
09-Feb-21 14:25 46.236720 -48.284545 264 35500ft 439kts
09-Feb-21 14:26 46.214013 -48.458135 263 35502ft 440kts
09-Feb-21 14:27 46.190984 -48.632097 264 35510ft 439kts
09-Feb-21 14:28 46.167565 -48.806764 263 35509ft 440kts
09-Feb-21 14:29 46.144102 -48.979815 263 35511ft 441kts
09-Feb-21 14:30 46.120225 -49.153734 263 35518ft 440kts
09-Feb-21 14:31 46.096084 -49.327710 263 35505ft 439kts
09-Feb-21 14:32 46.071745 -49.500737 263 35503ft 440kts
09-Feb-21 14:33 46.047055 -49.674407 262 35505ft 439kts
09-Feb-21 14:34 46.022094 -49.848005 263 35517ft 441kts
09-Feb-21 14:35 45.999019 -50.021280 271 35507ft 434kts
09-Feb-21 14:36 46.001345 -50.195568 274 35513ft 433kts
09-Feb-21 14:37 46.002615 -50.369818 274 35507ft 431kts
09-Feb-21 14:38 46.003452 -50.543223 274 35512ft 434kts
09-Feb-21 14:39 46.004010 -50.717070 274 35497ft 432kts
09-Feb-21 14:40 46.004289 -50.891587 273 35510ft 434kts
09-Feb-21 14:41 46.004337 -51.066579 272 35513ft 440kts
09-Feb-21 14:42 46.004078 -51.244942 272 35504ft 442kts
09-Feb-21 14:43 46.003546 -51.423230 272 35494ft 444kts
09-Feb-21 14:44 46.002747 -51.600910 273 35508ft 444kts
09-Feb-21 14:45 46.001705 -51.778633 272 35529ft 442kts
09-Feb-21 14:46 46.000349 -51.956792 272 35518ft 442kts
09-Feb-21 14:48 45.984062 -52.134316 263 35504ft 447kts
09-Feb-21 14:49 45.963189 -52.310481 263 35501ft 446kts
09-Feb-21 14:50 45.941749 -52.486979 263 35508ft 448kts
09-Feb-21 14:51 45.920244 -52.663416 263 35506ft 447kts
09-Feb-21 14:52 45.898373 -52.839793 263 36145ft 446kts
09-Feb-21 14:53 45.876318 -53.014984 262 37049ft 444kts
09-Feb-21 14:54 45.854351 -53.187541 262 37499ft 428kts
09-Feb-21 14:55 45.832225 -53.358854 262 37506ft 442kts
09-Feb-21 14:56 45.820520 -53.448785 262 37501ft 443kts
09-Feb-21 14:57 45.794047 -53.649582 262 37496ft 442kts
09-Feb-21 14:58 45.747419 -53.997843 261 37502ft 442kts
09-Feb-21 14:59 45.701301 -54.333827 261 37824ft 442kts
09-Feb-21 15:00 45.652595 -54.680493 260 37827ft 442kts
09-Feb-21 15:01 45.602864 -55.026598 260 37832ft 442kts
09-Feb-21 15:01 45.561467 -55.308465 260 37822ft 430kts
09-Feb-21 15:03 45.502472 -55.702146 259 37836ft 433kts
09-Feb-21 15:04 45.450484 -56.040774 259 37833ft 433kts
09-Feb-21 15:05 45.397797 -56.377017 259 37825ft 433kts
09-Feb-21 15:06 45.343937 -56.713620 259 37835ft 433kts
09-Feb-21 15:06 45.298505 -56.992593 259 37839ft 431kts
09-Feb-21 15:07 45.244124 -57.320816 259 37858ft 423kts
09-Feb-21 15:09 45.179596 -57.701842 258 37861ft 424kts
09-Feb-21 15:09 45.132855 -57.972867 258 37944ft 423kts
09-Feb-21 15:10 45.034601 -58.529473 259 38060ft 406kts
09-Feb-21 15:11 44.924244 -59.135128 259 38081ft 385kts
09-Feb-21 15:12 44.812680 -59.727828 259 38086ft 390kts
09-Feb-21 15:13 44.698315 -60.317360 259 38104ft 389kts
09-Feb-21 15:14 44.580805 -60.905106 258 38166ft 390kts
09-Feb-21 15:15 44.461927 -61.482547 258 38124ft 376kts
09-Feb-21 15:16 44.341022 -62.053191 257 38174ft 381kts
09-Feb-21 15:17 44.218138 -62.617801 257 38215ft 380kts
09-Feb-21 15:18 44.091779 -63.183371 256 38219ft 374kts
09-Feb-21 15:19 43.966722 -63.728756 255 38259ft 375kts
09-Feb-21 15:20 43.838762 -64.272750 255 38230ft 373kts
09-Feb-21 15:21 43.707563 -64.817701 254 38314ft 375kts
09-Feb-21 15:22 43.626979 -65.146040 254 38305ft 367kts
09-Feb-21 15:23 43.560135 -65.414739 254 38286ft 368kts
09-Feb-21 15:24 43.492814 -65.682537 253 38301ft 368kts
09-Feb-21 15:25 43.424821 -65.949641 253 38308ft 368kts
09-Feb-21 15:26 43.354695 -66.222163 253 38294ft 368kts
09-Feb-21 15:27 43.306330 -66.408135 253 38293ft 368kts
09-Feb-21 15:28 43.271514 -66.541228 253 38292ft 369kts
09-Feb-21 15:29 43.236682 -66.673656 252 38308ft 368kts
09-Feb-21 15:30 43.201551 -66.806460 253 38306ft 368kts
09-Feb-21 15:31 43.166243 -66.939178 253 38304ft 369kts
09-Feb-21 15:32 43.128488 -67.070591 250 38299ft 370kts
09-Feb-21 15:33 43.088924 -67.201179 249 38296ft 369kts
09-Feb-21 15:34 43.049077 -67.331579 249 38293ft 370kts
09-Feb-21 15:35 43.009195 -67.461487 250 38290ft 366kts
09-Feb-21 15:36 42.969692 -67.589463 250 38287ft 361kts
09-Feb-21 15:37 42.930472 -67.715861 250 38305ft 358kts
09-Feb-21 15:38 42.891613 -67.840550 251 38307ft 352kts
09-Feb-21 15:39 42.852942 -67.964117 251 38295ft 351kts
09-Feb-21 15:40 42.814246 -68.087176 251 38273ft 352kts
09-Feb-21 15:41 42.775437 -68.210095 251 38263ft 352kts
09-Feb-21 15:42 42.736250 -68.333422 251 38258ft 351kts
09-Feb-21 15:43 42.697243 -68.455845 251 38255ft 351kts
09-Feb-21 15:44 42.658046 -68.578230 251 38250ft 351kts
09-Feb-21 15:45 42.618735 -68.700355 251 38264ft 353kts
09-Feb-21 15:46 42.579108 -68.823051 251 38223ft 352kts
09-Feb-21 15:47 42.539286 -68.945606 250 38150ft 351kts
09-Feb-21 15:48 42.499341 -69.068045 250 38096ft 353kts
09-Feb-21 15:49 42.459339 -69.189998 249 38080ft 353kts
09-Feb-21 15:50 42.419112 -69.312178 250 38034ft 353kts
09-Feb-21 15:51 42.378743 -69.434227 250 38002ft 352kts
09-Feb-21 15:52 42.338259 -69.556149 249 38003ft 352kts
09-Feb-21 15:53 42.297726 -69.677530 249 38009ft 353kts
09-Feb-21 15:54 42.257241 -69.798398 249 38003ft 352kts
09-Feb-21 15:55 42.216542 -69.919400 249 38000ft 352kts
09-Feb-21 15:56 42.175650 -70.040220 249 37997ft 353kts
09-Feb-21 15:57 42.134706 -70.160780 249 37994ft 353kts
09-Feb-21 15:58 42.094337 -70.279080 249 37447ft 328kts
09-Feb-21 15:59 42.057517 -70.386725 250 36558ft 314kts
09-Feb-21 16:00 42.022383 -70.495041 251 35681ft 313kts
09-Feb-21 16:01 41.988230 -70.603848 251 34788ft 315kts
09-Feb-21 16:02 41.953736 -70.713133 250 33963ft 316kts
09-Feb-21 16:03 41.919017 -70.822813 250 33187ft 320kts
09-Feb-21 16:04 41.883977 -70.933059 250 32353ft 323kts
09-Feb-21 16:05 41.848221 -71.045102 250 31469ft 327kts
09-Feb-21 16:06 41.812008 -71.158108 250 30570ft 331kts
09-Feb-21 16:07 41.775468 -71.271431 251 29659ft 336kts
09-Feb-21 16:08 41.737822 -71.387911 251 28734ft 341kts
09-Feb-21 16:09 41.673003 -71.486571 229 27791ft 366kts
09-Feb-21 16:10 41.594852 -71.574221 229 26819ft 363kts
09-Feb-21 16:11 41.517360 -71.660433 228 25845ft 358kts
09-Feb-21 16:12 41.441029 -71.745077 228 24979ft 356kts
09-Feb-21 16:13 41.365166 -71.828894 228 24181ft 350kts
09-Feb-21 16:14 41.289514 -71.912249 228 24183ft 351kts
09-Feb-21 16:15 41.213413 -71.995728 227 23250ft 349kts
09-Feb-21 16:16 41.138818 -72.077338 227 21419ft 341kts
09-Feb-21 16:17 41.086479 -72.173843 252 19582ft 318kts
09-Feb-21 16:18 41.058741 -72.284013 252 17729ft 306kts
09-Feb-21 16:19 41.032626 -72.388874 252 15869ft 292kts
09-Feb-21 16:20 41.007552 -72.489517 251 14012ft 284kts
09-Feb-21 16:21 40.982749 -72.588139 251 12142ft 278kts
09-Feb-21 16:22 40.960539 -72.676387 249 11999ft 236kts
09-Feb-21 16:23 40.939586 -72.759192 249 11999ft 236kts
09-Feb-21 16:24 40.899961 -72.826594 221 11996ft 241kts
09-Feb-21 16:25 40.845982 -72.879027 221 12003ft 242kts
09-Feb-21 16:26 40.788114 -72.934170 221 9996ft 283kts
09-Feb-21 16:27 40.724546 -72.994954 223 8985ft 255kts
09-Feb-21 16:28 40.665262 -73.037649 215 8997ft 239kts
09-Feb-21 16:29 40.606654 -73.079326 223 8995ft 235kts
09-Feb-21 16:30 40.553649 -73.129154 223 8986ft 225kts
09-Feb-21 16:31 40.501730 -73.177534 223 8990ft 229kts
09-Feb-21 16:32 40.449090 -73.226646 224 8989ft 231kts
09-Feb-21 16:33 40.396599 -73.275620 224 8989ft 231kts
09-Feb-21 16:34 40.344113 -73.324642 224 8989ft 230kts
09-Feb-21 16:35 40.291668 -73.373623 224 8986ft 230kts
09-Feb-21 16:37 40.267616 -73.437173 287 8300ft 208kts
09-Feb-21 16:38 40.283377 -73.514240 287 6948ft 216kts
09-Feb-21 16:39 40.297251 -73.585858 287 6327ft 200kts
09-Feb-21 16:40 40.310148 -73.655547 286 5134ft 201kts
09-Feb-21 16:41 40.323110 -73.727642 286 3937ft 203kts
09-Feb-21 16:42 40.336814 -73.800225 286 2745ft 205kts
09-Feb-21 16:43 40.351224 -73.872286 287 1960ft 190kts
09-Feb-21 16:44 40.368338 -73.936428 322 1973ft 185kts
09-Feb-21 16:45 40.416422 -73.952558 29 1990ft 186kts
09-Feb-21 16:46 40.458410 -73.914446 29 1966ft 180kts
09-Feb-21 16:47 40.501246 -73.880031 28 1768ft 177kts
09-Feb-21 16:48 40.539512 -73.849996 28 1453ft 149kts
09-Feb-21 16:49 40.574038 -73.823059 28 1127ft 136kts
09-Feb-21 16:50 40.606772 -73.797517 29 421ft 137kts
09-Feb-21 16:51 40.636645 -73.774119 30 18ft 61kts
09-Feb-21 16:51 40.643380 -73.769412 354 18ft 26kts
09-Feb-21 16:53 40.644139 -73.769688 339 18ft 7kts
09-Feb-21 16:54 40.648206 -73.771961 300 18ft 17kts
09-Feb-21 16:54 40.650419 -73.776788 302 18ft 19kts
09-Feb-21 16:56 40.650481 -73.780934 286 18ft 3kts
09-Feb-21 16:56 40.650396 -73.781669 244 18ft 2kts
09-Feb-21 16:57 40.650395 -73.781672 244 18ft 0kts
09-Feb-21 16:59 40.650395 -73.781672 244 18ft 0kts
09-Feb-21 16:59 40.650395 -73.781672 244 18ft 0kts
09-Feb-21 17:00 40.650395 -73.781672 244 18ft 0kts
09-Feb-21 17:01 40.650395 -73.781672 244 18ft 0kts
09-Feb-21 17:02 40.650395 -73.781672 244 18ft 0kts
09-Feb-21 17:03 40.650395 -73.781672 244 18ft 0kts

Navigation Log

Ident Type
Flight plan parsing failed, navigation log unavailable